Time;durP1;ratioP1;P1;durP2;ratioP2;P2;SDS_P1;SDS_P2;PMS_P1;PMS_P2;Temp;Humidity;BMP_temperature;BMP_pressure;BME280_temperature;BME280_humidity;BME280_pressure;Samples;Min_cycle;Max_cycle;Signal;HPM_P1;HPM_P2
2022/12/09 00:00:36;;;;;;;33.78;14.93;;;;;;;1.07;68.80;98161.59;5107101;29;20090;-69
2022/12/09 00:03:26;;;;;;;35.40;14.98;;;;;;;0.84;67.51;98135.28;5123612;29;20216;-69
2022/12/09 00:06:22;;;;;;;28.85;13.32;;;;;;;1.14;67.59;98157.63;5098021;29;20461;-68
2022/12/09 00:09:14;;;;;;;22.05;12.55;;;;;;;0.91;67.44;98126.09;5121715;29;20053;-68
2022/12/09 00:12:05;;;;;;;29.92;13.30;;;;;;;0.86;67.79;98142.97;5121528;29;20057;-68
2022/12/09 00:14:54;;;;;;;29.10;13.93;;;;;;;0.97;68.58;98139.66;5123008;29;20675;-69
2022/12/09 00:17:45;;;;;;;31.83;15.27;;;;;;;1.15;67.70;98123.56;5110235;29;20054;-68
2022/12/09 00:20:35;;;;;;;35.72;17.65;;;;;;;1.25;67.96;98128.97;5121941;28;20091;-68
2022/12/09 00:23:25;;;;;;;28.88;13.88;;;;;;;0.89;67.46;98111.47;5112489;29;20058;-68
2022/12/09 00:26:16;;;;;;;36.78;13.93;;;;;;;0.93;67.80;98134.66;5122672;29;20512;-69
2022/12/09 00:29:07;;;;;;;28.85;13.48;;;;;;;0.84;68.01;98137.06;5116272;29;20055;-69
2022/12/09 00:31:57;;;;;;;30.58;13.23;;;;;;;0.79;68.01;98136.50;5118485;29;20484;-69
2022/12/09 00:34:48;;;;;;;30.08;14.25;;;;;;;0.66;68.33;98119.09;5108796;29;20197;-69
2022/12/09 00:37:38;;;;;;;27.83;12.98;;;;;;;0.89;67.92;98133.19;5122552;29;20073;-68
2022/12/09 00:40:28;;;;;;;27.88;12.60;;;;;;;0.87;67.29;98118.59;5115519;29;20165;-68
2022/12/09 00:43:20;;;;;;;29.58;13.30;;;;;;;0.89;68.62;98122.75;5112216;29;20167;-69
2022/12/09 00:46:12;;;;;;;27.58;13.40;;;;;;;0.67;67.94;98112.94;5121151;29;20055;-67
2022/12/09 00:49:03;;;;;;;32.85;14.10;;;;;;;0.72;68.12;98130.03;5122186;29;20126;-67
2022/12/09 00:51:53;;;;;;;27.60;12.93;;;;;;;0.54;68.17;98129.50;5110234;29;20384;-66
2022/12/09 00:54:44;;;;;;;28.15;12.60;;;;;;;0.52;67.70;98124.38;5121406;28;20413;-67
2022/12/09 00:57:35;;;;;;;27.45;13.10;;;;;;;0.49;68.16;98123.75;5123955;28;20833;-67
2022/12/09 01:00:25;;;;;;;28.90;12.82;;;;;;;0.29;67.93;98123.28;5092681;29;20054;-68
2022/12/09 01:03:16;;;;;;;24.35;12.15;;;;;;;0.31;67.66;98133.66;5110582;29;20510;-66
2022/12/09 01:06:09;;;;;;;24.08;11.50;;;;;;;0.34;67.81;98142.09;5121072;29;20051;-67
2022/12/09 01:09:01;;;;;;;26.33;12.48;;;;;;;0.13;67.52;98133.06;5112026;29;20470;-68
2022/12/09 01:11:52;;;;;;;25.30;12.38;;;;;;;0.17;67.53;98129.34;5103265;29;20052;-67
2022/12/09 01:14:42;;;;;;;21.77;11.35;;;;;;;0.10;68.40;98133.25;5123075;29;20048;-67
2022/12/09 01:17:34;;;;;;;28.10;13.02;;;;;;;0.26;68.89;98139.13;5119520;29;20134;-67
2022/12/09 01:20:25;;;;;;;26.67;12.48;;;;;;;0.26;68.94;98133.09;5101162;29;20583;-66
2022/12/09 01:23:15;;;;;;;28.10;13.40;;;;;;;0.53;67.98;98139.13;5114747;29;20057;-66
2022/12/09 01:26:07;;;;;;;25.92;12.32;;;;;;;0.40;69.63;98151.31;5121047;29;20061;-67
2022/12/09 01:28:58;;;;;;;30.38;14.13;;;;;;;0.47;69.11;98152.56;5115362;29;20058;-67
2022/12/09 01:31:48;;;;;;;27.98;12.60;;;;;;;0.60;68.95;98142.97;5122758;28;20610;-66
2022/12/09 01:34:39;;;;;;;28.30;13.38;;;;;;;0.56;68.09;98135.44;5126857;29;20190;-66
2022/12/09 01:37:34;;;;;;;26.40;12.45;;;;;;;0.45;67.78;98126.56;5117251;28;20070;-66
2022/12/09 01:40:25;;;;;;;26.58;12.40;;;;;;;0.51;67.39;98116.69;5115066;28;20102;-67
2022/12/09 01:43:19;;;;;;;26.65;11.95;;;;;;;0.42;68.12;98105.06;5108333;29;20170;-67
2022/12/09 01:46:10;;;;;;;29.55;12.25;;;;;;;0.29;68.28;98112.88;5113999;29;20087;-66
2022/12/09 01:49:01;;;;;;;26.45;12.25;;;;;;;0.54;67.40;98121.69;5117545;29;20461;-67
2022/12/09 01:51:57;;;;;;;29.48;12.43;;;;;;;0.45;68.52;98120.53;5124146;28;20469;-67
2022/12/09 01:54:51;;;;;;;26.05;12.02;;;;;;;0.51;67.88;98117.50;5115198;29;20056;-68
2022/12/09 01:57:44;;;;;;;26.58;11.77;;;;;;;0.62;67.32;98116.78;5109780;29;20101;-69
2022/12/09 02:00:35;;;;;;;28.40;11.73;;;;;;;0.59;66.92;98099.56;5107477;29;20120;-68
2022/12/09 02:03:26;;;;;;;23.35;12.18;;;;;;;0.65;66.47;98093.09;5108530;29;20046;-68
2022/12/09 02:06:17;;;;;;;23.15;11.45;;;;;;;0.66;66.98;98113.88;5117433;28;20058;-69
2022/12/09 02:09:08;;;;;;;27.08;11.60;;;;;;;0.69;66.23;98116.25;5111914;29;20167;-68
2022/12/09 02:12:29;;;;;;;25.10;12.07;;;;;;;0.45;67.41;98099.66;5114927;29;20189;-68
2022/12/09 02:15:29;;;;;;;26.10;12.25;;;;;;;0.29;67.59;98075.53;5113583;29;20055;-68
2022/12/09 02:18:27;;;;;;;26.30;12.35;;;;;;;0.23;66.83;98090.66;5113175;29;20058;-68
2022/12/09 02:21:36;;;;;;;24.90;11.57;;;;;;;0.04;68.13;98082.38;5118707;29;20182;-69
2022/12/09 02:24:44;;;;;;;25.45;12.27;;;;;;;-0.05;67.70;98042.09;5114200;29;20060;-68
2022/12/09 02:27:48;;;;;;;21.92;11.40;;;;;;;0.20;67.44;98064.78;5122818;28;20059;-68
2022/12/09 02:30:58;;;;;;;22.40;10.95;;;;;;;0.09;67.60;98080.28;5115678;29;20058;-68
2022/12/09 02:34:19;;;;;;;23.67;11.38;;;;;;;-0.03;67.55;98066.31;5120349;29;20055;-68
2022/12/09 02:37:31;;;;;;;26.30;11.07;;;;;;;-0.22;67.61;98059.78;5122221;29;20413;-68
2022/12/09 02:40:39;;;;;;;22.38;11.70;;;;;;;-0.14;68.29;98065.31;5126364;29;20098;-69
2022/12/09 02:43:34;;;;;;;24.77;10.80;;;;;;;-0.36;68.21;98058.91;5098402;29;20102;-68
2022/12/09 02:46:25;;;;;;;25.65;11.23;;;;;;;-0.43;67.85;98048.97;5111217;29;20058;-68
2022/12/09 02:49:19;;;;;;;24.95;10.63;;;;;;;-0.41;68.34;98049.72;5110019;29;20059;-68
2022/12/09 02:52:11;;;;;;;16.10;7.63;;;;;;;-0.38;67.88;98044.31;5108615;29;20051;-69
2022/12/09 02:55:06;;;;;;;24.70;11.15;;;;;;;-0.57;68.47;98042.03;5123531;29;20134;-68
2022/12/09 02:58:00;;;;;;;22.73;10.52;;;;;;;-0.50;68.26;98053.72;5121720;28;20118;-68
2022/12/09 03:00:55;;;;;;;29.52;11.68;;;;;;;-0.54;69.09;98050.50;5122630;29;20110;-68
2022/12/09 03:03:45;;;;;;;29.17;11.43;;;;;;;-0.52;68.57;98046.03;5117326;29;20592;-68
2022/12/09 03:06:47;;;;;;;26.10;11.40;;;;;;;-0.61;68.99;98041.41;5124145;29;20077;-68
2022/12/09 03:09:43;;;;;;;22.88;11.32;;;;;;;-0.74;68.24;98028.31;5123737;29;20134;-68
2022/12/09 03:12:35;;;;;;;25.83;12.20;;;;;;;-0.44;69.07;98023.88;5105561;29;20103;-68
2022/12/09 03:15:29;;;;;;;27.50;12.10;;;;;;;-0.45;68.13;98030.03;5117193;29;20576;-68
2022/12/09 03:18:20;;;;;;;24.38;12.27;;;;;;;-0.32;70.09;98030.91;5108796;29;20067;-68
2022/12/09 03:21:15;;;;;;;27.90;11.57;;;;;;;-0.19;69.64;98034.38;5120218;29;20054;-68
2022/12/09 03:24:08;;;;;;;29.20;12.52;;;;;;;-0.31;69.26;98016.94;5123318;29;20047;-68
2022/12/09 03:27:02;;;;;;;22.48;12.02;;;;;;;-0.41;69.58;98008.03;5100228;29;20063;-68
2022/12/09 03:29:54;;;;;;;30.30;13.38;;;;;;;-0.25;68.85;98019.13;5117597;29;20429;-67
2022/12/09 03:32:45;;;;;;;25.05;12.10;;;;;;;-0.29;69.45;98017.66;5116155;29;20126;-67
2022/12/09 03:35:41;;;;;;;31.17;12.93;;;;;;;-0.93;70.38;98016.56;5109233;29;20051;-68
2022/12/09 03:38:36;;;;;;;28.00;11.98;;;;;;;-0.82;70.60;98008.94;5108526;29;20150;-67
2022/12/09 03:41:31;;;;;;;24.98;11.93;;;;;;;-0.61;69.89;98007.56;5109645;29;20059;-68
2022/12/09 03:44:34;;;;;;;27.08;12.13;;;;;;;-0.52;69.36;98014.78;5125118;23;20061;-81
2022/12/09 03:47:25;;;;;;;25.50;11.68;;;;;;;-0.60;69.50;98026.59;5128212;28;20137;-82
2022/12/09 03:50:16;;;;;;;27.10;12.35;;;;;;;-0.75;69.18;98010.22;5131282;28;20177;-81
2022/12/09 03:53:14;;;;;;;25.85;11.85;;;;;;;-0.54;69.21;98021.00;5118586;28;20189;-81
2022/12/09 03:56:07;;;;;;;25.30;11.80;;;;;;;-0.67;68.86;98022.72;5131506;28;20069;-80
2022/12/09 03:59:01;;;;;;;28.38;12.55;;;;;;;-0.86;68.65;97976.19;5128488;28;20091;-80
2022/12/09 04:01:52;;;;;;;24.70;12.05;;;;;;;-0.87;69.13;97992.75;5142257;28;20129;-80
2022/12/09 04:04:42;;;;;;;25.65;11.32;;;;;;;-0.92;69.39;97984.44;5132688;28;20055;-80
2022/12/09 04:07:33;;;;;;;25.85;11.45;;;;;;;-1.02;69.53;97977.19;5131859;28;20106;-80
2022/12/09 04:10:23;;;;;;;28.00;12.68;;;;;;;-1.23;69.57;97958.53;5163874;28;20049;-79
2022/12/09 04:13:14;;;;;;;26.95;11.95;;;;;;;-1.04;68.90;97986.03;5137440;28;20179;-80
2022/12/09 04:16:04;;;;;;;25.88;10.45;;;;;;;-1.06;68.66;97982.66;5140683;28;20149;-80
2022/12/09 04:18:54;;;;;;;25.90;11.07;;;;;;;-0.96;68.97;97997.63;5129530;28;20062;-80
2022/12/09 04:21:44;;;;;;;26.05;10.85;;;;;;;-1.07;69.18;97994.84;5141620;28;20078;-80
2022/12/09 04:24:35;;;;;;;24.98;10.80;;;;;;;-0.79;69.64;98000.94;5129008;28;20640;-79
2022/12/09 04:27:25;;;;;;;22.33;11.23;;;;;;;-0.79;68.97;97982.72;5128924;28;20101;-79
2022/12/09 04:30:15;;;;;;;24.23;12.18;;;;;;;-0.87;69.72;97962.38;5140340;28;20058;-79
2022/12/09 04:33:06;;;;;;;28.08;11.27;;;;;;;-0.72;69.00;97989.19;5128052;28;20086;-80
2022/12/09 04:36:04;;;;;;;26.05;11.43;;;;;;;-0.73;69.86;97972.75;5115728;28;20106;-78
2022/12/09 04:38:54;;;;;;;22.88;11.10;;;;;;;-0.68;69.43;97982.84;5130865;28;20528;-79
2022/12/09 04:41:44;;;;;;;25.30;11.25;;;;;;;-1.02;69.41;97945.97;5143659;28;20524;-79
2022/12/09 04:44:34;;;;;;;29.10;11.43;;;;;;;-0.93;69.26;97967.13;5129419;28;20432;-79
2022/12/09 04:47:24;;;;;;;27.85;11.50;;;;;;;-0.89;69.23;97973.78;5129021;28;20054;-80
2022/12/09 04:50:15;;;;;;;26.45;10.90;;;;;;;-0.98;69.08;97952.66;5128642;28;20065;-79
2022/12/09 04:53:06;;;;;;;23.27;10.27;;;;;;;-0.97;68.65;97945.66;5128835;28;20069;-79
2022/12/09 04:56:09;;;;;;;26.40;10.90;;;;;;;-0.93;68.59;97954.09;5123271;29;20118;-79
2022/12/09 04:59:00;;;;;;;;;;;;;;;-0.98;68.96;97949.22;5133415;28;20067;-78
2022/12/09 05:01:50;;;;;;;23.67;10.68;;;;;;;-1.12;69.10;97933.66;5158718;28;19928;-79
2022/12/09 05:04:41;;;;;;;22.73;10.32;;;;;;;-1.09;68.47;97931.69;5135884;28;20046;-79
2022/12/09 05:07:32;;;;;;;22.70;10.35;;;;;;;-1.12;69.57;97918.03;5128983;28;20149;-81
2022/12/09 05:10:22;;;;;;;22.05;10.05;;;;;;;-1.09;69.43;97913.47;5145271;28;20065;-81
2022/12/09 05:13:13;;;;;;;24.60;11.25;;;;;;;-1.03;68.30;97936.47;5127242;28;20634;-80
2022/12/09 05:16:07;;;;;;;24.17;10.98;;;;;;;-1.30;69.03;97894.00;5115642;28;20051;-80
2022/12/09 05:19:05;;;;;;;24.48;10.73;;;;;;;-1.25;68.36;97904.97;5130957;28;20066;-80
2022/12/09 05:21:56;;;;;;;25.58;11.48;;;;;;;-1.18;69.69;97924.47;5130031;28;20067;-80
2022/12/09 05:24:46;;;;;;;26.13;10.68;;;;;;;-1.23;69.70;97916.09;5117027;28;20133;-80
2022/12/09 05:27:37;;;;;;;27.40;10.77;;;;;;;-1.25;69.49;97898.00;5123853;28;20051;-80
2022/12/09 05:30:28;;;;;;;25.77;10.68;;;;;;;-1.13;69.84;97906.78;5127384;28;20887;-80
2022/12/09 05:33:18;;;;;;;25.48;11.02;;;;;;;-1.21;68.94;97911.66;5145032;28;20051;-80
2022/12/09 05:36:10;;;;;;;21.83;11.02;;;;;;;-1.38;69.08;97897.09;5129687;28;20467;-80
2022/12/09 05:39:01;;;;;;;24.70;11.05;;;;;;;-1.42;69.40;97891.28;5130507;28;20132;-80
2022/12/09 05:41:51;;;;;;;21.17;10.20;;;;;;;-1.39;70.21;97889.38;5115643;28;20417;-79
2022/12/09 05:44:42;;;;;;;31.10;11.88;;;;;;;-1.06;70.01;97917.63;5131105;28;20046;-80
2022/12/09 05:47:32;;;;;;;26.10;10.65;;;;;;;-1.16;70.55;97911.34;5119815;28;20161;-80
2022/12/09 05:50:23;;;;;;;24.83;11.30;;;;;;;-1.17;69.86;97907.91;5128072;28;20174;-80
2022/12/09 05:53:15;;;;;;;23.88;11.02;;;;;;;-1.22;68.97;97902.19;5144680;28;20101;-80
2022/12/09 05:56:06;;;;;;;24.08;10.65;;;;;;;-1.25;68.92;97898.00;5113102;28;20058;-82
2022/12/09 05:58:57;;;;;;;24.42;10.50;;;;;;;-1.27;69.15;97893.81;5127165;28;20106;-81
2022/12/09 06:01:48;;;;;;;25.77;11.45;;;;;;;-1.29;68.20;97890.47;5112153;28;20058;-83
2022/12/09 06:04:38;;;;;;;22.80;11.40;;;;;;;-1.33;68.54;97878.59;5131588;28;20053;-83
2022/12/09 06:07:29;;;;;;;27.63;11.57;;;;;;;-1.44;68.77;97871.50;5119448;28;20122;-83
2022/12/09 06:10:20;;;;;;;25.25;11.25;;;;;;;-1.47;68.46;97861.28;5149152;28;20538;-81
2022/12/09 06:13:10;;;;;;;25.80;11.55;;;;;;;-1.51;69.04;97849.41;5141673;28;20061;-83
2022/12/09 06:16:07;;;;;;;31.40;12.95;;;;;;;-1.25;68.98;97898.00;5127468;28;20061;-84
2022/12/09 06:18:58;;;;;;;37.60;13.52;;;;;;;-1.55;69.31;97840.97;5148410;28;20074;-83
2022/12/09 06:21:49;;;;;;;33.13;13.98;;;;;;;-1.51;69.36;97847.66;5125980;28;20046;-86
2022/12/09 06:24:39;;;;;;;34.33;14.50;;;;;;;-1.32;70.33;97859.50;5137468;28;20047;-81
2022/12/09 06:27:29;;;;;;;30.90;13.88;;;;;;;-1.20;69.70;97882.09;5132167;28;20062;-83
2022/12/09 06:30:20;;;;;;;34.25;13.60;;;;;;;-1.29;69.43;97854.06;5118986;28;20078;-81
2022/12/09 06:33:10;;;;;;;29.48;14.10;;;;;;;-1.16;69.39;97873.16;5134870;28;20420;-82
2022/12/09 06:36:20;;;;;;;33.63;13.77;;;;;;;-1.22;70.45;97868.38;5121271;28;20055;-82
2022/12/09 06:39:11;;;;;;;36.03;13.35;;;;;;;-1.22;69.46;97856.19;5134111;28;20117;-82
2022/12/09 06:42:03;;;;;;;27.73;12.82;;;;;;;-1.20;69.84;97875.13;5131401;28;20059;-81
2022/12/09 06:44:53;;;;;;;33.67;13.50;;;;;;;-1.30;69.65;97862.81;5130243;28;20122;-83
2022/12/09 06:47:44;;;;;;;31.77;13.88;;;;;;;-1.16;69.99;97880.13;5140596;28;20058;-83
2022/12/09 06:50:36;;;;;;;33.63;14.55;;;;;;;-1.12;68.91;97892.88;5132220;28;20145;-86
2022/12/09 06:53:26;;;;;;;33.55;14.85;;;;;;;-1.40;70.37;97865.16;5143516;28;20106;-83
2022/12/09 06:56:17;;;;;;;34.35;13.77;;;;;;;-1.34;70.50;97853.53;5130489;28;20058;-80
2022/12/09 06:59:09;;;;;;;36.47;14.10;;;;;;;-0.98;70.49;97882.38;5128264;28;20127;-80
2022/12/09 07:02:00;;;;;;;31.85;14.13;;;;;;;-1.23;70.11;97843.28;5117484;28;20129;-83
2022/12/09 07:04:52;;;;;;;33.38;13.55;;;;;;;-1.30;69.94;97835.03;5115087;28;20049;-82
2022/12/09 07:07:43;;;;;;;34.42;13.63;;;;;;;-1.16;70.12;97848.91;5113280;28;20133;-81
2022/12/09 07:10:35;;;;;;;31.30;14.13;;;;;;;-1.08;69.68;97881.31;5125128;28;20331;-83
2022/12/09 07:13:26;;;;;;;35.42;15.27;;;;;;;-1.12;72.00;97889.44;5102479;28;20658;-80
2022/12/09 07:16:17;;;;;;;31.95;14.93;;;;;;;-0.92;70.84;97888.16;5129224;28;20054;-81
2022/12/09 07:19:16;;;;;;;34.60;14.30;;;;;;;-0.98;70.62;97872.00;5117094;28;20120;-85
2022/12/09 07:22:07;;;;;;;35.72;14.75;;;;;;;-1.07;70.02;97854.34;5109811;28;20832;-85
2022/12/09 07:24:57;;;;;;;35.08;13.90;;;;;;;-0.74;69.98;97892.97;5131086;28;20035;-80
2022/12/09 07:27:51;;;;;;;41.53;15.32;;;;;;;-1.28;69.69;97793.34;5131901;28;20053;-81
2022/12/09 07:30:41;;;;;;;32.42;15.38;;;;;;;-0.86;69.88;97861.69;5118154;28;20063;-84
2022/12/09 07:33:32;;;;;;;35.10;16.42;;;;;;;-0.68;70.21;97872.69;5113467;28;20557;-82
2022/12/09 07:36:25;;;;;;;45.25;16.25;;;;;;;-0.66;70.26;97879.47;5112206;28;20135;-82
2022/12/09 07:39:17;;;;;;;36.03;15.45;;;;;;;-0.63;69.78;97874.06;5120249;28;20053;-82
2022/12/09 07:42:08;;;;;;;35.05;16.08;;;;;;;-0.64;69.89;97859.34;5120779;28;20054;-83
2022/12/09 07:45:17;;;;;;;34.63;15.18;;;;;;;-0.76;69.82;97829.78;5117369;28;20057;-84
2022/12/09 07:48:10;;;;;;;31.63;15.48;;;;;;;-0.78;69.71;97826.44;5117826;28;20058;-83
2022/12/09 07:51:03;;;;;;;35.95;15.80;;;;;;;-0.60;69.28;97829.56;5121595;28;20440;-84
2022/12/09 07:53:55;;;;;;;37.75;14.93;;;;;;;-1.02;70.03;97776.88;5123046;28;20062;-83
2022/12/09 07:56:45;;;;;;;36.30;15.38;;;;;;;-0.47;70.10;97868.66;5126155;28;20058;-83
2022/12/09 07:59:36;;;;;;;33.78;15.13;;;;;;;-0.23;70.57;97871.41;5142556;28;20054;-83
2022/12/09 08:02:27;;;;;;;41.85;15.75;;;;;;;-0.10;69.85;97876.56;5134634;28;20046;-83
2022/12/09 08:05:18;;;;;;;41.33;16.17;;;;;;;-0.03;70.28;97876.06;5140105;28;20065;-84
2022/12/09 08:08:09;;;;;;;36.88;15.77;;;;;;;-0.06;69.32;97867.63;5136773;28;20062;-83
2022/12/09 08:11:08;;;;;;;33.80;15.32;;;;;;;0.01;70.17;97863.66;5105914;28;20097;-82
2022/12/09 08:14:02;;;;;;;32.50;14.85;;;;;;;-0.26;69.67;97804.69;5135474;28;20060;-84
2022/12/09 08:17:01;;;;;;;33.55;15.63;;;;;;;0.13;69.85;97860.22;5123746;28;20154;-83
2022/12/09 08:19:51;;;;;;;33.85;14.20;;;;;;;0.02;70.67;97834.06;5139691;28;20737;-81
2022/12/09 08:22:42;;;;;;;33.83;15.50;;;;;;;0.03;69.36;97808.81;5154910;28;20058;-81
2022/12/09 08:25:32;;;;;;;35.42;15.00;;;;;;;0.44;70.03;97851.06;5126404;28;20057;-82
2022/12/09 08:28:22;;;;;;;32.20;15.00;;;;;;;0.70;69.29;97862.25;5122607;28;20061;-83
2022/12/09 08:31:16;;;;;;;36.85;15.48;;;;;;;0.68;69.49;97845.03;5136671;28;20068;-81
2022/12/09 08:34:08;;;;;;;32.75;15.63;;;;;;;0.52;68.43;97832.25;5137841;28;20062;-82
2022/12/09 08:36:59;;;;;;;30.98;14.90;;;;;;;0.79;68.56;97852.94;5136107;28;20103;-82
2022/12/09 08:39:51;;;;;;;36.88;15.43;;;;;;;0.50;68.91;97820.28;5131410;28;20081;-83
2022/12/09 08:42:41;;;;;;;38.17;16.13;;;;;;;0.49;68.53;97826.44;5131385;28;20150;-82
2022/12/09 08:45:35;;;;;;;32.17;15.30;;;;;;;0.63;68.03;97808.00;5115763;28;20559;-82
2022/12/09 08:48:26;;;;;;;33.00;16.38;;;;;;;1.08;68.42;97840.38;5124380;28;20201;-83
2022/12/09 08:51:17;;;;;;;33.20;15.50;;;;;;;0.81;67.79;97790.22;5106250;28;20639;-82
2022/12/09 08:54:08;;;;;;;42.58;17.50;;;;;;;1.13;67.54;97821.78;5125561;28;20056;-82
2022/12/09 08:56:59;;;;;;;40.47;16.60;;;;;;;0.90;67.96;97813.84;5135223;28;20069;-81
2022/12/09 08:59:50;;;;;;;33.63;16.13;;;;;;;0.98;67.57;97796.78;5145584;28;20058;-81
2022/12/09 09:02:40;;;;;;;31.35;15.23;;;;;;;0.98;68.00;97817.66;5137527;28;20155;-81
2022/12/09 09:05:31;;;;;;;31.88;15.07;;;;;;;1.03;67.72;97800.72;5137785;28;20550;-81
2022/12/09 09:08:22;;;;;;;34.92;16.33;;;;;;;0.87;68.83;97787.16;5133738;28;20113;-82
2022/12/09 09:11:16;;;;;;;43.25;16.73;;;;;;;1.12;68.21;97814.88;5119607;28;20058;-82
2022/12/09 09:14:09;;;;;;;34.53;16.75;;;;;;;1.04;67.52;97825.06;5112091;28;20050;-83
2022/12/09 09:17:00;;;;;;;32.80;16.55;;;;;;;1.07;68.44;97801.34;5129867;28;20049;-84
2022/12/09 09:19:50;;;;;;;37.97;17.98;;;;;;;1.22;68.38;97828.91;5121788;28;20100;-84
2022/12/09 09:22:41;;;;;;;386.20;155.95;;;;;;;0.59;68.18;97743.97;5124364;28;20067;-83
2022/12/09 09:25:32;;;;;;;61.72;25.48;;;;;;;1.28;68.57;97804.94;5119190;28;20103;-80
2022/12/09 09:28:22;;;;;;;42.17;18.45;;;;;;;1.46;68.03;97817.56;5116946;28;20853;-82
2022/12/09 09:31:21;;;;;;;40.72;16.73;;;;;;;1.36;67.52;97799.16;5108696;28;20068;-83
2022/12/09 09:34:16;;;;;;;40.03;17.93;;;;;;;1.47;68.00;97821.88;5130430;28;20578;-85
2022/12/09 09:37:06;;;;;;;41.50;18.55;;;;;;;1.15;68.58;97798.97;5127250;28;20073;-82
2022/12/09 09:39:57;;;;;;;36.55;17.90;;;;;;;1.27;68.32;97798.06;5134704;28;20085;-82
2022/12/09 09:42:50;;;;;;;44.72;17.35;;;;;;;1.37;67.83;97795.59;5108199;28;20065;-82
2022/12/09 09:45:40;;;;;;;33.78;17.15;;;;;;;1.38;69.07;97811.13;5154004;28;20054;-84
2022/12/09 09:48:34;;;;;;;46.58;18.13;;;;;;;1.11;67.99;97787.09;5145234;28;20056;-84
2022/12/09 09:51:28;;;;;;;44.85;18.60;;;;;;;1.05;68.86;97743.19;5143124;28;20379;-85
2022/12/09 09:54:19;;;;;;;;;;;;;;;1.63;67.63;97815.34;5142497;28;20118;-87
2022/12/09 09:57:22;;;;;;;38.10;17.23;;;;;;;1.05;69.92;97811.06;5140886;28;19937;-88
2022/12/09 10:00:28;;;;;;;39.33;17.83;;;;;;;0.76;69.73;97711.41;5126884;28;20054;-84
2022/12/09 10:03:44;;;;;;;39.00;18.65;;;;;;;1.16;69.38;97811.09;5127174;28;20448;-87
2022/12/09 10:06:44;;;;;;;39.25;17.77;;;;;;;1.49;68.67;97762.47;5121234;28;20120;-84
2022/12/09 10:10:00;;;;;;;40.25;18.55;;;;;;;1.82;67.75;97795.63;5129369;28;20061;-84
2022/12/09 10:13:00;;;;;;;56.20;23.30;;;;;;;1.86;68.53;97797.91;5118533;28;20074;-83
2022/12/09 10:16:41;;;;;;;45.17;18.63;;;;;;;1.78;67.09;97758.47;5147827;28;21626;-83
2022/12/09 10:19:37;;;;;;;43.85;18.50;;;;;;;1.59;68.30;97743.41;5129803;28;20556;-84
2022/12/09 10:22:30;;;;;;;45.72;19.05;;;;;;;2.02;68.60;97778.41;5123395;28;20436;-84
2022/12/09 10:25:23;;;;;;;;;;;;;;;2.22;67.17;97788.16;5144564;28;20172;-84
2022/12/09 10:28:20;;;;;;;46.22;18.40;;;;;;;2.10;67.47;97781.25;5129074;28;19936;-81
2022/12/09 10:31:10;;;;;;;39.17;17.98;;;;;;;1.97;67.16;97743.97;5125565;28;20593;-82
2022/12/09 10:34:01;;;;;;;40.42;18.63;;;;;;;2.38;67.31;97779.06;5137363;28;20046;-82
2022/12/09 10:36:53;;;;;;;43.67;18.08;;;;;;;2.06;66.90;97756.31;5127665;28;20046;-82
2022/12/09 10:39:45;;;;;;;41.20;16.77;;;;;;;2.16;65.89;97774.72;5117299;28;20055;-83
2022/12/09 10:45:58;;;;;;;39.65;17.90;;;;;;;1.72;66.88;97687.53;5124281;28;20058;-82
2022/12/09 10:49:18;;;;;;;40.80;18.48;;;;;;;2.48;66.89;97759.06;5123472;28;20094;-81
2022/12/09 10:52:08;;;;;;;43.08;18.98;;;;;;;2.46;65.93;97766.22;5136587;28;20133;-82
2022/12/09 10:54:59;;;;;;;40.15;17.75;;;;;;;2.43;67.03;97746.38;5146490;28;20630;-82
2022/12/09 10:57:49;;;;;;;36.13;17.98;;;;;;;2.75;66.09;97769.94;5149653;28;20732;-81
2022/12/09 11:00:39;;;;;;;34.70;17.67;;;;;;;2.91;65.97;97738.06;5142343;28;20054;-81
2022/12/09 11:03:47;;;;;;;49.28;19.83;;;;;;;2.97;65.16;97731.50;5143846;28;20047;-81
2022/12/09 11:06:40;;;;;;;49.70;19.25;;;;;;;2.66;65.16;97714.91;5139630;28;20085;-81
2022/12/09 11:09:33;;;;;;;147.57;42.40;;;;;;;2.85;65.10;97745.59;5136972;28;21797;-83
2022/12/09 11:12:27;;;;;;;41.67;18.48;;;;;;;3.15;64.45;97750.94;5131538;28;20050;-81
2022/12/09 11:15:38;;;;;;;43.85;19.45;;;;;;;3.15;65.38;97750.94;5134480;28;20027;-82
2022/12/09 11:18:42;;;;;;;40.20;17.52;;;;;;;3.19;65.28;97757.59;5118253;28;20058;-82
2022/12/09 11:21:35;;;;;;;35.85;17.27;;;;;;;2.90;66.01;97710.25;5140866;28;20174;-83
2022/12/09 11:24:26;;;;;;;44.10;17.85;;;;;;;3.13;66.27;97725.84;5158549;28;20078;-83
2022/12/09 11:27:25;;;;;;;36.13;17.63;;;;;;;3.30;64.68;97739.16;5128730;28;20155;-83
2022/12/09 11:30:53;;;;;;;43.30;16.92;;;;;;;3.43;64.84;97743.38;5112295;28;20054;-82
2022/12/09 11:34:14;;;;;;;35.33;17.38;;;;;;;3.13;64.58;97703.09;5116810;28;20197;-83
2022/12/09 11:37:09;;;;;;;36.55;17.80;;;;;;;3.29;64.70;97700.84;5148953;28;20499;-83
2022/12/09 11:39:59;;;;;;;36.22;17.45;;;;;;;3.33;63.90;97708.44;5142725;28;20934;-83
2022/12/09 11:42:54;;;;;;;39.75;17.25;;;;;;;3.20;64.79;97672.81;5126013;28;20110;-82
2022/12/09 11:45:44;;;;;;;37.80;18.27;;;;;;;3.51;64.92;97723.44;5147006;28;20054;-83
2022/12/09 11:48:35;;;;;;;45.95;17.90;;;;;;;3.40;66.37;97717.44;5129087;28;20066;-82
2022/12/09 11:52:04;;;;;;;36.97;18.05;;;;;;;3.50;65.88;97715.69;5143623;28;20081;-82
2022/12/09 11:55:04;;;;;;;42.45;18.67;;;;;;;3.63;65.34;97715.47;5126994;28;20061;-82
2022/12/09 11:58:02;;;;;;;54.28;17.60;;;;;;;3.42;64.49;97663.13;5143474;28;20166;-84
2022/12/09 12:01:09;;;;;;;41.72;19.30;;;;;;;3.74;64.82;97694.41;5128560;28;20062;-84
2022/12/09 12:04:06;;;;;;;40.00;17.27;;;;;;;3.65;64.64;97675.06;5127203;28;20062;-83
2022/12/09 12:07:02;;;;;;;39.03;17.45;;;;;;;3.24;64.24;97626.22;5139918;28;20081;-82
2022/12/09 12:09:55;;;;;;;37.45;17.75;;;;;;;3.73;64.88;97701.44;5120553;28;20055;-82
2022/12/09 12:12:55;;;;;;;32.57;17.20;;;;;;;3.61;65.85;97702.53;5120462;28;20051;-83
2022/12/09 12:16:07;;;;;;;43.97;17.65;;;;;;;3.55;65.04;97695.19;5099519;28;20054;-83
2022/12/09 12:19:03;;;;;;;40.95;17.38;;;;;;;3.48;64.91;97671.28;5116206;28;20050;-85
2022/12/09 12:22:11;;;;;;;36.83;17.33;;;;;;;3.74;64.45;97700.50;5106448;28;20125;-81
2022/12/09 12:25:21;;;;;;;35.55;16.85;;;;;;;3.82;64.25;97697.22;5113790;28;20062;-85
2022/12/09 12:28:36;;;;;;;39.90;16.75;;;;;;;3.27;64.24;97582.25;5130695;28;20093;-86
2022/12/09 12:31:36;;;;;;;39.50;18.23;;;;;;;3.49;63.85;97583.03;5115393;28;20064;-87
2022/12/09 12:34:48;;;;;;;40.58;17.98;;;;;;;3.83;64.82;97653.47;5100250;28;20062;-86
2022/12/09 12:38:16;;;;;;;50.03;18.92;;;;;;;4.07;64.76;97680.13;5117279;28;20077;-86
2022/12/09 12:41:35;;;;;;;37.67;17.60;;;;;;;3.46;64.06;97599.00;5105264;28;20077;-85
2022/12/09 12:48:01;;;;;;;46.15;19.65;;;;;;;3.37;65.16;97624.19;5129221;28;20054;-82
2022/12/09 12:51:10;;;;;;;40.80;18.70;;;;;;;4.02;65.02;97686.78;5126393;28;20062;-88
2022/12/09 12:54:56;;;;;;;42.28;18.65;;;;;;;3.55;64.07;97600.84;5119484;28;20061;-90
2022/12/09 12:57:52;;;;;;;41.72;19.10;;;;;;;4.03;65.13;97686.63;5127466;28;20058;-87
2022/12/09 13:01:21;;;;;;;38.70;18.15;;;;;;;4.10;65.63;97693.00;5114431;28;20063;-88
2022/12/09 13:04:16;;;;;;;38.40;17.88;;;;;;;3.75;65.24;97651.50;5121839;28;20418;-84
2022/12/09 13:07:32;;;;;;;42.88;18.40;;;;;;;4.17;64.43;97690.66;5125897;28;20051;-84
2022/12/09 13:10:41;;;;;;;39.40;17.90;;;;;;;4.08;64.45;97688.88;5120205;28;20516;-88
2022/12/09 13:13:44;;;;;;;38.00;17.63;;;;;;;4.18;64.65;97685.28;5135507;28;20057;-86
2022/12/09 13:16:38;;;;;;;38.75;18.33;;;;;;;3.32;64.53;97558.28;5119061;28;20070;-84
2022/12/09 13:20:04;;;;;;;42.25;17.33;;;;;;;4.31;63.87;97695.53;5125929;28;20136;-85
2022/12/09 13:23:24;;;;;;;39.67;17.58;;;;;;;4.34;64.48;97690.00;5117589;28;20059;-84
2022/12/09 13:26:36;;;;;;;38.97;17.98;;;;;;;4.45;63.48;97696.91;5106500;28;20516;-85
2022/12/09 13:29:41;;;;;;;43.80;19.65;;;;;;;3.33;63.54;97519.81;5126121;28;21307;-85
2022/12/09 13:32:56;;;;;;;40.40;18.67;;;;;;;4.20;64.27;97662.34;5116789;28;20054;-86
2022/12/09 13:35:55;;;;;;;41.03;18.27;;;;;;;4.20;63.50;97651.84;5118060;28;20050;-85
2022/12/09 13:38:46;;;;;;;41.08;17.63;;;;;;;4.34;63.66;97678.66;5118774;28;20109;-87